Time;durP1;ratioP1;P1;durP2;ratioP2;P2;SDS_P1;SDS_P2;PMS_P1;PMS_P2;Temp;Humidity;BMP_temperature;BMP_pressure;BME280_temperature;BME280_humidity;BME280_pressure;Samples;Min_cycle;Max_cycle;Signal;HPM_P1;HPM_P2
2021/12/10 00:02:30;;;;;;;24.30;16.80;;;;;;;;;;5062471;28;20467;-78
2021/12/10 00:04:58;;;;;;;23.67;13.93;;;;;;;;;;5061349;28;20477;-79
2021/12/10 00:07:25;;;;;;;21.00;14.23;;;;;;;;;;5062124;28;20479;-78
2021/12/10 00:09:54;;;;;;;22.20;14.33;;;;;;;;;;5061181;28;20572;-78
2021/12/10 00:12:22;;;;;;;25.33;13.47;;;;;;;;;;5063260;28;20460;-78
2021/12/10 00:14:48;;;;;;;21.17;11.57;;;;;;;;;;5061628;28;20463;-78
2021/12/10 00:17:16;;;;;;;23.87;12.00;;;;;;;;;;5062338;28;20479;-78
2021/12/10 00:19:46;;;;;;;22.77;12.97;;;;;;;;;;5060684;28;20487;-76
2021/12/10 00:22:16;;;;;;;19.80;12.30;;;;;;;;;;5062070;28;20948;-78
2021/12/10 00:24:43;;;;;;;23.33;11.87;;;;;;;;;;5061165;28;20816;-75
2021/12/10 00:27:10;;;;;;;16.73;12.53;;;;;;;;;;5062508;28;20459;-79
2021/12/10 00:29:38;;;;;;;21.50;12.60;;;;;;;;;;5062076;28;20558;-78
2021/12/10 00:32:16;;;;;;;25.67;13.20;;;;;;;;;;5061896;28;20451;-78
2021/12/10 00:34:44;;;;;;;15.67;10.10;;;;;;;;;;5062024;28;20483;-76
2021/12/10 00:37:12;;;;;;;21.83;11.43;;;;;;;;;;5061080;28;20520;-78
2021/12/10 00:39:43;;;;;;;17.30;11.80;;;;;;;;;;5061148;28;20580;-78
2021/12/10 00:42:11;;;;;;;17.60;10.77;;;;;;;;;;5061241;28;21027;-77
2021/12/10 00:44:37;;;;;;;19.80;11.30;;;;;;;;;;5061688;28;21077;-78
2021/12/10 00:47:04;;;;;;;23.87;12.00;;;;;;;;;;5061417;28;20467;-78
2021/12/10 00:49:30;;;;;;;21.77;11.57;;;;;;;;;;5059803;28;20467;-77
2021/12/10 00:51:56;;;;;;;16.90;10.37;;;;;;;;;;5063219;28;20447;-78
2021/12/10 00:54:22;;;;;;;15.50;10.47;;;;;;;;;;5061902;28;20505;-78
2021/12/10 00:56:50;;;;;;;19.97;12.03;;;;;;;;;;5060421;28;20538;-78
2021/12/10 00:59:17;;;;;;;12.50;10.20;;;;;;;;;;5059739;28;20528;-78
2021/12/10 01:01:44;;;;;;;20.73;11.10;;;;;;;;;;5061426;28;21063;-78
2021/12/10 01:04:11;;;;;;;15.13;9.53;;;;;;;;;;5061307;28;20467;-78
2021/12/10 01:06:39;;;;;;;14.63;10.20;;;;;;;;;;5061991;28;20471;-78
2021/12/10 01:09:11;;;;;;;15.67;9.97;;;;;;;;;;5061183;28;20459;-78
2021/12/10 01:11:40;;;;;;;14.93;9.43;;;;;;;;;;5061551;28;21063;-78
2021/12/10 01:14:14;;;;;;;13.30;9.23;;;;;;;;;;5061042;28;20462;-78
2021/12/10 01:25:06;;;;;;;22.50;10.77;;;;;;;;;;5060689;28;20582;-78
2021/12/10 01:27:34;;;;;;;16.23;11.80;;;;;;;;;;5061609;28;21082;-78
2021/12/10 01:30:02;;;;;;;17.17;10.90;;;;;;;;;;5061270;28;20475;-78
2021/12/10 01:32:30;;;;;;;23.07;10.60;;;;;;;;;;5061092;28;20481;-78
2021/12/10 01:34:57;;;;;;;19.03;11.60;;;;;;;;;;5059400;28;20491;-78
2021/12/10 01:37:24;;;;;;;16.50;11.57;;;;;;;;;;5059821;28;20899;-78
2021/12/10 01:39:50;;;;;;;21.90;12.13;;;;;;;;;;5060005;28;20482;-79
2021/12/10 01:42:29;;;;;;;17.97;11.93;;;;;;;;;;5061713;28;20447;-78
2021/12/10 01:44:57;;;;;;;20.97;12.13;;;;;;;;;;5059467;28;20581;-78
2021/12/10 01:47:26;;;;;;;20.93;12.03;;;;;;;;;;5060012;28;20476;-78
2021/12/10 01:49:52;;;;;;;17.30;10.47;;;;;;;;;;5061116;28;20524;-78
2021/12/10 01:52:19;;;;;;;20.57;10.40;;;;;;;;;;5061489;28;20456;-78
2021/12/10 01:54:47;;;;;;;18.60;12.40;;;;;;;;;;5060932;28;20480;-78
2021/12/10 01:57:14;;;;;;;15.87;11.93;;;;;;;;;;5062222;28;20470;-78
2021/12/10 01:59:42;;;;;;;17.17;11.17;;;;;;;;;;5061172;28;20463;-78
2021/12/10 02:02:09;;;;;;;16.00;10.20;;;;;;;;;;5061835;28;20490;-79
2021/12/10 02:04:38;;;;;;;16.67;10.00;;;;;;;;;;5058551;28;20479;-78
2021/12/10 02:07:05;;;;;;;17.17;10.70;;;;;;;;;;5063341;28;20638;-78
2021/12/10 02:09:31;;;;;;;19.60;11.40;;;;;;;;;;5065034;28;20472;-78
2021/12/10 02:11:57;;;;;;;14.43;10.30;;;;;;;;;;5064199;28;20487;-79
2021/12/10 02:14:24;;;;;;;20.43;12.50;;;;;;;;;;5064189;28;20520;-79
2021/12/10 02:16:51;;;;;;;20.93;11.83;;;;;;;;;;5064191;28;20992;-78
2021/12/10 02:19:18;;;;;;;19.67;12.60;;;;;;;;;;5064221;28;20894;-78
2021/12/10 02:21:46;;;;;;;15.90;11.90;;;;;;;;;;5063921;28;20466;-78
2021/12/10 02:24:13;;;;;;;16.93;12.23;;;;;;;;;;5064983;28;20471;-78
2021/12/10 02:26:40;;;;;;;23.30;11.80;;;;;;;;;;5064939;28;20987;-78
2021/12/10 02:29:07;;;;;;;20.97;12.20;;;;;;;;;;5062723;28;20520;-78
2021/12/10 02:31:33;;;;;;;19.50;12.63;;;;;;;;;;5063772;28;21007;-78
2021/12/10 02:34:01;;;;;;;19.23;12.30;;;;;;;;;;5060756;28;20464;-78
2021/12/10 02:36:28;;;;;;;20.00;10.80;;;;;;;;;;5063145;28;21008;-78
2021/12/10 02:38:56;;;;;;;20.87;10.93;;;;;;;;;;5075291;22;20475;-84
2021/12/10 02:41:26;;;;;;;22.43;11.90;;;;;;;;;;5064219;28;20464;-82
2021/12/10 02:43:53;;;;;;;14.60;10.57;;;;;;;;;;5065704;28;20572;-80
2021/12/10 02:46:19;;;;;;;17.83;11.40;;;;;;;;;;5064918;28;20447;-81
2021/12/10 02:48:45;;;;;;;18.97;11.77;;;;;;;;;;5070001;28;20531;-80
2021/12/10 02:51:11;;;;;;;19.37;12.00;;;;;;;;;;5085973;28;20486;-82
2021/12/10 02:53:42;;;;;;;18.27;12.33;;;;;;;;;;5080884;28;20468;-80
2021/12/10 02:56:10;;;;;;;16.20;11.67;;;;;;;;;;5066892;28;20447;-81
2021/12/10 02:58:36;;;;;;;18.63;10.63;;;;;;;;;;5065130;28;20912;-81
2021/12/10 03:01:07;;;;;;;14.90;10.50;;;;;;;;;;5065681;28;20451;-81
2021/12/10 03:03:33;;;;;;;16.63;10.47;;;;;;;;;;5066185;28;20479;-81
2021/12/10 03:05:59;;;;;;;16.83;11.10;;;;;;;;;;5065014;28;20952;-81
2021/12/10 03:08:26;;;;;;;15.30;10.40;;;;;;;;;;5065624;28;20881;-81
2021/12/10 03:10:52;;;;;;;15.40;10.17;;;;;;;;;;5065210;28;20500;-82
2021/12/10 03:13:20;;;;;;;16.13;11.47;;;;;;;;;;5063990;28;20517;-80
2021/12/10 03:15:46;;;;;;;19.07;10.40;;;;;;;;;;5066107;28;20936;-81
2021/12/10 03:18:14;;;;;;;19.53;10.80;;;;;;;;;;5063016;28;21106;-81
2021/12/10 03:20:41;;;;;;;15.30;9.83;;;;;;;;;;5064819;28;20506;-82
2021/12/10 03:23:08;;;;;;;23.27;11.20;;;;;;;;;;5065933;28;21444;-82
2021/12/10 03:25:35;;;;;;;14.73;10.20;;;;;;;;;;5065550;28;20485;-80
2021/12/10 03:28:01;;;;;;;18.20;9.80;;;;;;;;;;5064813;28;20525;-81
2021/12/10 03:30:31;;;;;;;16.40;9.60;;;;;;;;;;5064030;28;21009;-81
2021/12/10 03:32:58;;;;;;;17.20;10.17;;;;;;;;;;5065889;28;20512;-81
2021/12/10 03:35:26;;;;;;;16.40;10.80;;;;;;;;;;5065177;28;20994;-80
2021/12/10 03:37:53;;;;;;;18.90;11.83;;;;;;;;;;5066961;28;20452;-81
2021/12/10 03:40:19;;;;;;;14.90;10.83;;;;;;;;;;5064932;28;20517;-80
2021/12/10 03:42:47;;;;;;;14.13;9.77;;;;;;;;;;5065119;28;20464;-81
2021/12/10 03:45:14;;;;;;;20.43;11.60;;;;;;;;;;5064354;28;20481;-80
2021/12/10 03:47:42;;;;;;;14.77;10.73;;;;;;;;;;5065419;28;20466;-81
2021/12/10 03:50:09;;;;;;;16.37;9.97;;;;;;;;;;5076806;28;20478;-82
2021/12/10 03:52:35;;;;;;;18.17;9.77;;;;;;;;;;5084117;28;20512;-81
2021/12/10 03:55:02;;;;;;;15.20;10.27;;;;;;;;;;5069218;28;21051;-82
2021/12/10 03:57:29;;;;;;;16.53;10.17;;;;;;;;;;5064399;28;20459;-81
2021/12/10 03:59:55;;;;;;;18.97;10.20;;;;;;;;;;5062623;28;20472;-81
2021/12/10 04:02:21;;;;;;;19.63;11.50;;;;;;;;;;5065165;28;20459;-81
2021/12/10 04:04:50;;;;;;;16.70;9.60;;;;;;;;;;5063159;28;21005;-81
2021/12/10 04:07:18;;;;;;;19.73;9.80;;;;;;;;;;5063162;28;20463;-81
2021/12/10 04:09:44;;;;;;;15.70;10.50;;;;;;;;;;5062554;28;20479;-82
2021/12/10 04:12:11;;;;;;;14.83;10.13;;;;;;;;;;5063783;28;20480;-81
2021/12/10 04:14:38;;;;;;;16.23;11.00;;;;;;;;;;5065087;28;20540;-81
2021/12/10 04:17:05;;;;;;;17.87;10.63;;;;;;;;;;5064978;28;20447;-82
2021/12/10 04:19:33;;;;;;;16.20;10.27;;;;;;;;;;5063669;28;20479;-83
2021/12/10 04:22:01;;;;;;;15.60;9.30;;;;;;;;;;5063910;28;20448;-82
2021/12/10 04:24:29;;;;;;;18.10;10.60;;;;;;;;;;5063474;28;21082;-82
2021/12/10 04:26:55;;;;;;;15.33;9.70;;;;;;;;;;5064114;28;20526;-81
2021/12/10 04:29:22;;;;;;;14.93;9.80;;;;;;;;;;5063682;28;20460;-82
2021/12/10 04:31:48;;;;;;;21.67;11.43;;;;;;;;;;5064541;28;20489;-82
2021/12/10 04:34:14;;;;;;;15.13;9.70;;;;;;;;;;5063400;28;20533;-82
2021/12/10 04:36:41;;;;;;;14.50;10.30;;;;;;;;;;5066247;28;20451;-80
2021/12/10 04:39:09;;;;;;;20.47;10.63;;;;;;;;;;5065160;28;20470;-80
2021/12/10 04:41:35;;;;;;;22.57;16.50;;;;;;;;;;5063994;28;20526;-81
2021/12/10 04:44:01;;;;;;;16.87;9.57;;;;;;;;;;5065742;28;20566;-81
2021/12/10 04:46:28;;;;;;;22.70;13.30;;;;;;;;;;5065631;28;20455;-81
2021/12/10 04:48:57;;;;;;;23.13;12.90;;;;;;;;;;5066852;28;21058;-81
2021/12/10 04:51:24;;;;;;;24.23;12.10;;;;;;;;;;5065307;28;21086;-82
2021/12/10 04:53:51;;;;;;;29.50;20.50;;;;;;;;;;5065542;28;20482;-82
2021/12/10 04:56:18;;;;;;;18.63;13.67;;;;;;;;;;5064955;28;20467;-82
2021/12/10 04:58:44;;;;;;;23.27;14.63;;;;;;;;;;5064889;28;20475;-80
2021/12/10 05:01:11;;;;;;;33.00;22.47;;;;;;;;;;5063677;28;20462;-80
2021/12/10 05:03:37;;;;;;;18.20;12.63;;;;;;;;;;5064278;28;21015;-80
2021/12/10 05:06:04;;;;;;;19.90;14.30;;;;;;;;;;5065816;28;20516;-84
2021/12/10 05:08:30;;;;;;;18.53;13.07;;;;;;;;;;5064490;28;20826;-82
2021/12/10 05:10:56;;;;;;;18.60;11.87;;;;;;;;;;5065369;28;20541;-81
2021/12/10 05:13:24;;;;;;;21.47;14.90;;;;;;;;;;5066538;28;20459;-81
2021/12/10 05:15:56;;;;;;;22.90;12.23;;;;;;;;;;5063720;28;20489;-81
2021/12/10 05:18:23;;;;;;;20.43;12.77;;;;;;;;;;5064811;28;20597;-83
2021/12/10 05:20:49;;;;;;;19.27;13.67;;;;;;;;;;5066290;28;20509;-81
2021/12/10 05:23:16;;;;;;;20.40;12.53;;;;;;;;;;5066440;28;20450;-84
2021/12/10 05:25:43;;;;;;;20.20;12.10;;;;;;;;;;5085947;28;20450;-80
2021/12/10 05:28:09;;;;;;;18.70;11.93;;;;;;;;;;5085240;28;20473;-83
2021/12/10 05:30:38;;;;;;;21.47;10.23;;;;;;;;;;5082210;28;20990;-82
2021/12/10 05:33:04;;;;;;;21.93;13.67;;;;;;;;;;5086152;28;21071;-81
2021/12/10 05:35:32;;;;;;;23.03;12.77;;;;;;;;;;5088222;28;20480;-83
2021/12/10 05:37:58;;;;;;;19.73;11.97;;;;;;;;;;5088764;28;20477;-82
2021/12/10 05:40:25;;;;;;;19.63;13.73;;;;;;;;;;5088239;28;20470;-82
2021/12/10 05:42:52;;;;;;;14.80;10.80;;;;;;;;;;5089228;28;20441;-82
2021/12/10 05:45:19;;;;;;;20.83;12.33;;;;;;;;;;5090141;28;20470;-80
2021/12/10 05:47:47;;;;;;;21.50;12.43;;;;;;;;;;5089602;28;21201;-81
2021/12/10 05:50:15;;;;;;;18.70;12.97;;;;;;;;;;5089932;28;20831;-81
2021/12/10 05:52:42;;;;;;;21.90;13.30;;;;;;;;;;5087669;28;20482;-80
2021/12/10 05:55:09;;;;;;;17.47;11.77;;;;;;;;;;5089020;28;20477;-81
2021/12/10 05:57:35;;;;;;;20.07;12.07;;;;;;;;;;5088391;28;20519;-81
2021/12/10 06:00:01;;;;;;;20.13;13.33;;;;;;;;;;5083917;28;20489;-81
2021/12/10 06:02:28;;;;;;;19.17;12.63;;;;;;;;;;5086481;28;20511;-81
2021/12/10 06:04:55;;;;;;;19.40;12.77;;;;;;;;;;5084466;28;20535;-81
2021/12/10 06:07:22;;;;;;;16.27;11.50;;;;;;;;;;5085748;28;20482;-81
2021/12/10 06:09:48;;;;;;;19.17;12.07;;;;;;;;;;5087368;28;20483;-82
2021/12/10 06:12:14;;;;;;;22.17;14.10;;;;;;;;;;5085444;28;20520;-83
2021/12/10 06:14:41;;;;;;;25.13;14.17;;;;;;;;;;5083106;28;20650;-83
2021/12/10 06:17:07;;;;;;;22.70;13.73;;;;;;;;;;5083983;28;20463;-83
2021/12/10 06:19:33;;;;;;;20.60;13.50;;;;;;;;;;5085480;28;20478;-80
2021/12/10 06:22:01;;;;;;;21.40;14.30;;;;;;;;;;5087215;28;20441;-80
2021/12/10 06:24:27;;;;;;;18.87;13.57;;;;;;;;;;5086619;28;20469;-82
2021/12/10 06:26:53;;;;;;;21.77;12.80;;;;;;;;;;5086515;28;20508;-80
2021/12/10 06:29:22;;;;;;;23.40;13.50;;;;;;;;;;5086493;28;20482;-81
2021/12/10 06:31:48;;;;;;;23.20;13.50;;;;;;;;;;5086372;28;20568;-83
2021/12/10 06:34:15;;;;;;;22.27;13.77;;;;;;;;;;5086267;28;20638;-81
2021/12/10 06:36:41;;;;;;;25.10;15.07;;;;;;;;;;5085768;28;21323;-82
2021/12/10 06:39:09;;;;;;;18.97;13.63;;;;;;;;;;5082500;28;20587;-81
2021/12/10 06:41:36;;;;;;;22.50;16.00;;;;;;;;;;5084723;28;20446;-82
2021/12/10 06:44:04;;;;;;;20.43;14.20;;;;;;;;;;5084921;28;20471;-82
2021/12/10 06:46:30;;;;;;;25.93;13.80;;;;;;;;;;5088784;28;20462;-82
2021/12/10 06:48:56;;;;;;;23.70;14.13;;;;;;;;;;5090212;28;20466;-81
2021/12/10 06:51:23;;;;;;;19.73;13.70;;;;;;;;;;5087906;28;20548;-81
2021/12/10 06:53:50;;;;;;;22.60;15.10;;;;;;;;;;5086703;28;21056;-82
2021/12/10 06:56:18;;;;;;;22.90;13.97;;;;;;;;;;5078786;28;21854;-82
2021/12/10 06:58:44;;;;;;;24.03;13.43;;;;;;;;;;5081685;28;20478;-81
2021/12/10 07:01:13;;;;;;;20.60;12.77;;;;;;;;;;5083907;28;20496;-80
2021/12/10 07:03:41;;;;;;;19.70;12.80;;;;;;;;;;5085120;28;20512;-81
2021/12/10 07:06:08;;;;;;;19.60;12.33;;;;;;;;;;5083183;28;20466;-82
2021/12/10 07:08:36;;;;;;;22.60;13.67;;;;;;;;;;5084641;28;20813;-81
2021/12/10 07:11:03;;;;;;;23.97;12.97;;;;;;;;;;5086284;28;20434;-81
2021/12/10 07:13:32;;;;;;;19.73;12.87;;;;;;;;;;5084920;28;20478;-81
2021/12/10 07:15:58;;;;;;;23.27;14.50;;;;;;;;;;5087351;28;20445;-81
2021/12/10 07:18:25;;;;;;;24.47;15.13;;;;;;;;;;5082990;28;20911;-79
2021/12/10 07:20:52;;;;;;;21.53;13.10;;;;;;;;;;5086734;28;20451;-82
2021/12/10 07:23:19;;;;;;;22.43;12.33;;;;;;;;;;5087311;28;20533;-81
2021/12/10 07:25:46;;;;;;;22.80;13.17;;;;;;;;;;5085318;28;21014;-81
2021/12/10 07:28:13;;;;;;;27.03;14.63;;;;;;;;;;5085135;28;20588;-82
2021/12/10 07:30:40;;;;;;;27.30;14.33;;;;;;;;;;5086260;28;20514;-81
2021/12/10 07:33:07;;;;;;;19.00;12.07;;;;;;;;;;5086200;28;20482;-81
2021/12/10 07:35:34;;;;;;;20.20;12.60;;;;;;;;;;5083767;28;20478;-81
2021/12/10 07:38:00;;;;;;;22.93;13.00;;;;;;;;;;5084076;28;20939;-81
2021/12/10 07:40:28;;;;;;;18.63;13.03;;;;;;;;;;5083799;28;20480;-81
2021/12/10 07:42:54;;;;;;;19.90;12.70;;;;;;;;;;5086136;28;20439;-80
2021/12/10 07:45:22;;;;;;;25.67;13.30;;;;;;;;;;5085558;28;20471;-81
2021/12/10 07:47:52;;;;;;;27.73;13.63;;;;;;;;;;5086912;28;20806;-81
2021/12/10 07:50:23;;;;;;;20.30;13.90;;;;;;;;;;5085825;28;20470;-81
2021/12/10 07:52:50;;;;;;;22.07;13.10;;;;;;;;;;5085845;28;20521;-83
2021/12/10 07:55:17;;;;;;;18.17;12.57;;;;;;;;;;5083480;28;20470;-80
2021/12/10 07:57:44;;;;;;;24.07;13.77;;;;;;;;;;5086906;28;20527;-82
2021/12/10 08:00:12;;;;;;;21.43;13.20;;;;;;;;;;5083728;28;20467;-81
2021/12/10 08:02:38;;;;;;;22.50;13.17;;;;;;;;;;5086680;28;20499;-82
2021/12/10 08:05:07;;;;;;;30.40;14.90;;;;;;;;;;5084384;28;20466;-81
2021/12/10 08:07:33;;;;;;;23.53;13.60;;;;;;;;;;5085937;28;20458;-81
2021/12/10 08:09:59;;;;;;;27.97;13.10;;;;;;;;;;5077036;28;20486;-82
2021/12/10 08:12:25;;;;;;;20.60;13.03;;;;;;;;;;5086007;28;20482;-80
2021/12/10 08:14:53;;;;;;;19.10;14.30;;;;;;;;;;5083825;28;20489;-83
2021/12/10 08:17:19;;;;;;;20.00;13.80;;;;;;;;;;5086057;28;20447;-82
2021/12/10 08:19:45;;;;;;;24.03;13.70;;;;;;;;;;5084039;28;20497;-81
2021/12/10 08:22:14;;;;;;;25.17;14.23;;;;;;;;;;5085722;28;20450;-80
2021/12/10 08:24:41;;;;;;;23.80;14.57;;;;;;;;;;5083749;28;20530;-81
2021/12/10 08:27:07;;;;;;;24.40;14.40;;;;;;;;;;5085588;28;20450;-80
2021/12/10 08:29:33;;;;;;;20.57;13.77;;;;;;;;;;5085065;28;20539;-82
2021/12/10 08:32:00;;;;;;;19.67;13.60;;;;;;;;;;5085377;28;20471;-81
2021/12/10 08:34:26;;;;;;;33.93;17.13;;;;;;;;;;5082680;28;20467;-81
2021/12/10 08:36:52;;;;;;;32.17;15.33;;;;;;;;;;5085604;28;21152;-80
2021/12/10 08:39:20;;;;;;;25.20;14.90;;;;;;;;;;5102721;22;20500;-79
2021/12/10 08:41:46;;;;;;;23.50;14.17;;;;;;;;;;5083657;28;20530;-82
2021/12/10 08:44:13;;;;;;;26.93;14.30;;;;;;;;;;5085204;28;20536;-82
2021/12/10 08:46:40;;;;;;;22.37;15.10;;;;;;;;;;5085847;28;21314;-82
2021/12/10 08:49:07;;;;;;;28.87;13.83;;;;;;;;;;5084463;28;20478;-82
2021/12/10 08:51:35;;;;;;;25.13;15.40;;;;;;;;;;5063063;28;20455;-82
2021/12/10 08:54:01;;;;;;;26.70;16.30;;;;;;;;;;5063909;28;21073;-82
2021/12/10 08:56:29;;;;;;;22.43;13.30;;;;;;;;;;5065717;28;20456;-82
2021/12/10 08:58:58;;;;;;;30.57;16.70;;;;;;;;;;5063642;28;20478;-82
2021/12/10 09:01:27;;;;;;;26.93;17.20;;;;;;;;;;5065289;28;20831;-82
2021/12/10 09:03:54;;;;;;;27.70;17.20;;;;;;;;;;5065287;28;20540;-82
2021/12/10 09:06:23;;;;;;;27.53;16.40;;;;;;;;;;5065736;28;20447;-82
2021/12/10 09:08:49;;;;;;;25.03;15.17;;;;;;;;;;5064733;28;20500;-82
2021/12/10 09:11:15;;;;;;;32.90;17.80;;;;;;;;;;5063138;28;20487;-82
2021/12/10 09:13:43;;;;;;;27.63;16.33;;;;;;;;;;5065921;28;20540;-82
2021/12/10 09:16:17;;;;;;;29.30;18.13;;;;;;;;;;5065512;28;20493;-81
2021/12/10 09:18:43;;;;;;;28.37;16.97;;;;;;;;;;5063717;28;20466;-81
2021/12/10 09:21:09;;;;;;;26.97;16.33;;;;;;;;;;5065039;28;20482;-82
2021/12/10 09:23:36;;;;;;;29.30;16.43;;;;;;;;;;5064856;28;20442;-82
2021/12/10 09:26:05;;;;;;;26.87;16.47;;;;;;;;;;5065610;28;20451;-81
2021/12/10 09:28:31;;;;;;;27.40;16.90;;;;;;;;;;5064039;28;20486;-81
2021/12/10 09:31:00;;;;;;;31.17;16.43;;;;;;;;;;5065938;28;20547;-82
2021/12/10 09:33:27;;;;;;;27.50;17.30;;;;;;;;;;5064845;28;21123;-82
2021/12/10 09:35:54;;;;;;;25.93;15.60;;;;;;;;;;5065943;28;20469;-82
2021/12/10 09:38:21;;;;;;;33.60;18.30;;;;;;;;;;5065359;28;20471;-81
2021/12/10 09:40:49;;;;;;;29.07;16.00;;;;;;;;;;5065104;28;20468;-81
2021/12/10 09:43:16;;;;;;;28.60;16.47;;;;;;;;;;5065967;28;20948;-81
2021/12/10 09:45:44;;;;;;;30.93;16.90;;;;;;;;;;5065851;28;20463;-80
2021/12/10 09:48:13;;;;;;;30.33;17.33;;;;;;;;;;5064677;28;20467;-81
2021/12/10 09:50:41;;;;;;;32.27;16.23;;;;;;;;;;5065180;28;20523;-81
2021/12/10 09:53:08;;;;;;;25.47;14.50;;;;;;;;;;5065431;28;20476;-82
2021/12/10 09:55:35;;;;;;;29.10;15.47;;;;;;;;;;5065186;28;20489;-81
2021/12/10 09:58:02;;;;;;;27.60;16.17;;;;;;;;;;5064906;28;20472;-82
2021/12/10 10:00:30;;;;;;;27.90;15.73;;;;;;;;;;5064410;28;20480;-82
2021/12/10 10:02:57;;;;;;;27.60;15.97;;;;;;;;;;5066139;28;20938;-82
2021/12/10 10:05:27;;;;;;;28.93;18.17;;;;;;;;;;5064645;28;20458;-82
2021/12/10 10:07:54;;;;;;;26.17;16.97;;;;;;;;;;5066145;28;20505;-82
2021/12/10 10:10:21;;;;;;;27.27;15.77;;;;;;;;;;5064793;28;20482;-82
2021/12/10 10:12:49;;;;;;;36.40;16.97;;;;;;;;;;5066277;28;20486;-82
2021/12/10 10:15:17;;;;;;;30.63;17.53;;;;;;;;;;5065539;28;20509;-82
2021/12/10 10:17:44;;;;;;;31.77;17.37;;;;;;;;;;5064186;28;20467;-81
2021/12/10 10:20:12;;;;;;;25.70;15.87;;;;;;;;;;5063892;28;20459;-82
2021/12/10 10:22:40;;;;;;;31.17;16.53;;;;;;;;;;5069427;28;20478;-82
2021/12/10 10:25:11;;;;;;;24.83;16.37;;;;;;;;;;5065730;28;20475;-82
2021/12/10 10:27:38;;;;;;;26.43;16.00;;;;;;;;;;5068633;28;20461;-82
2021/12/10 10:30:11;;;;;;;28.40;16.80;;;;;;;;;;5069066;28;20466;-82
2021/12/10 10:32:38;;;;;;;23.77;15.40;;;;;;;;;;5068957;28;20972;-82
2021/12/10 10:35:08;;;;;;;26.73;16.27;;;;;;;;;;5068395;28;20879;-82
2021/12/10 10:37:35;;;;;;;28.97;16.90;;;;;;;;;;5069269;28;20447;-82
2021/12/10 10:40:03;;;;;;;25.53;14.63;;;;;;;;;;5066196;28;20486;-82
2021/12/10 10:42:30;;;;;;;26.90;16.63;;;;;;;;;;5069312;28;20462;-82
2021/12/10 10:44:58;;;;;;;21.47;15.23;;;;;;;;;;5068193;28;20999;-82
2021/12/10 10:47:26;;;;;;;25.60;14.37;;;;;;;;;;5069923;28;20462;-82
2021/12/10 10:49:54;;;;;;;22.93;15.93;;;;;;;;;;5067167;28;20476;-80
2021/12/10 10:52:23;;;;;;;29.00;16.60;;;;;;;;;;5069019;28;20463;-82
2021/12/10 10:54:50;;;;;;;25.37;15.00;;;;;;;;;;5067463;28;20482;-82
2021/12/10 10:57:19;;;;;;;17.50;12.53;;;;;;;;;;5068104;28;20466;-82
2021/12/10 10:59:46;;;;;;;22.43;11.80;;;;;;;;;;5067183;28;20526;-82
2021/12/10 11:02:12;;;;;;;20.27;11.03;;;;;;;;;;5068010;28;20451;-82
2021/12/10 11:04:40;;;;;;;20.30;11.07;;;;;;;;;;5069337;28;20529;-83
2021/12/10 11:07:07;;;;;;;20.03;10.27;;;;;;;;;;5069896;28;20496;-82
2021/12/10 11:09:36;;;;;;;14.77;10.17;;;;;;;;;;5065127;28;20467;-82
2021/12/10 11:12:04;;;;;;;14.47;9.73;;;;;;;;;;5067724;28;20459;-82
2021/12/10 11:14:34;;;;;;;15.37;10.10;;;;;;;;;;5066925;28;20493;-82
2021/12/10 11:17:04;;;;;;;19.20;9.93;;;;;;;;;;5067796;28;20565;-82
2021/12/10 11:19:31;;;;;;;15.83;9.90;;;;;;;;;;5066085;28;20483;-82
2021/12/10 11:21:59;;;;;;;16.47;10.63;;;;;;;;;;5066371;28;20474;-82
2021/12/10 11:24:31;;;;;;;18.50;10.60;;;;;;;;;;5066372;28;21058;-82
2021/12/10 11:26:59;;;;;;;11.97;9.50;;;;;;;;;;5066015;28;20508;-82
2021/12/10 11:29:30;;;;;;;14.00;9.63;;;;;;;;;;5066304;28;20485;-80
2021/12/10 11:31:59;;;;;;;13.23;8.83;;;;;;;;;;5066254;28;20459;-81
2021/12/10 11:34:39;;;;;;;18.40;10.93;;;;;;;;;;5066414;28;20498;-80
2021/12/10 11:37:05;;;;;;;16.77;9.43;;;;;;;;;;5066910;28;20932;-81
2021/12/10 11:39:41;;;;;;;13.17;9.37;;;;;;;;;;5066502;28;20892;-81
2021/12/10 11:42:22;;;;;;;14.20;9.60;;;;;;;;;;5064997;28;20455;-80
2021/12/10 11:45:05;;;;;;;17.57;10.20;;;;;;;;;;5063589;28;20482;-81
2021/12/10 11:47:44;;;;;;;16.87;9.80;;;;;;;;;;5066629;28;20475;-81
2021/12/10 11:50:17;;;;;;;14.00;9.70;;;;;;;;;;5065703;28;20467;-81
2021/12/10 11:52:43;;;;;;;16.40;8.10;;;;;;;;;;5065151;28;20489;-80
2021/12/10 11:55:10;;;;;;;12.90;9.17;;;;;;;;;;5065592;28;20483;-81
2021/12/10 11:57:39;;;;;;;15.40;9.10;;;;;;;;;;5064902;28;20965;-81
2021/12/10 12:00:08;;;;;;;10.33;7.93;;;;;;;;;;5065649;28;20532;-81
2021/12/10 12:02:35;;;;;;;9.97;7.40;;;;;;;;;;5065588;28;20486;-84
2021/12/10 12:05:04;;;;;;;10.50;7.40;;;;;;;;;;5065786;28;20475;-81
2021/12/10 12:07:35;;;;;;;11.80;7.77;;;;;;;;;;5065938;28;20452;-81
2021/12/10 12:10:05;;;;;;;11.13;8.00;;;;;;;;;;5065704;28;20479;-81
2021/12/10 12:12:37;;;;;;;8.90;6.83;;;;;;;;;;5066872;28;20471;-81
2021/12/10 12:15:11;;;;;;;9.07;6.57;;;;;;;;;;5065415;28;20466;-81
2021/12/10 12:17:38;;;;;;;8.30;4.90;;;;;;;;;;5067080;28;21000;-81
2021/12/10 12:20:14;;;;;;;9.77;6.50;;;;;;;;;;5066187;28;20544;-81
2021/12/10 12:25:25;;;;;;;7.97;6.17;;;;;;;;;;5066253;28;20509;-80
2021/12/10 12:27:57;;;;;;;8.43;5.63;;;;;;;;;;5066751;28;20435;-81
2021/12/10 12:30:24;;;;;;;11.93;6.20;;;;;;;;;;5064693;28;20467;-82
2021/12/10 12:32:53;;;;;;;7.87;6.27;;;;;;;;;;5065380;28;20520;-81
2021/12/10 12:35:23;;;;;;;9.50;6.30;;;;;;;;;;5065065;28;20463;-81
2021/12/10 12:37:49;;;;;;;13.20;7.43;;;;;;;;;;5064220;28;20535;-81
2021/12/10 12:40:16;;;;;;;10.90;6.63;;;;;;;;;;5065226;28;20529;-81
2021/12/10 12:42:46;;;;;;;9.73;6.23;;;;;;;;;;5065303;28;20452;-79
2021/12/10 12:45:13;;;;;;;9.90;6.03;;;;;;;;;;5065414;28;20482;-81
2021/12/10 12:47:40;;;;;;;7.37;5.90;;;;;;;;;;5065261;28;20470;-81
2021/12/10 12:50:08;;;;;;;7.00;5.87;;;;;;;;;;5064340;28;20470;-81
2021/12/10 12:52:41;;;;;;;9.00;6.67;;;;;;;;;;5066114;28;20455;-81
2021/12/10 12:55:15;;;;;;;10.43;7.00;;;;;;;;;;5064449;28;20468;-80
2021/12/10 12:57:44;;;;;;;10.20;6.60;;;;;;;;;;5064449;28;20513;-81
2021/12/10 13:00:12;;;;;;;9.80;6.20;;;;;;;;;;5062966;28;20470;-81
2021/12/10 13:02:40;;;;;;;13.47;7.77;;;;;;;;;;5065563;28;20799;-81
2021/12/10 13:05:07;;;;;;;13.93;7.07;;;;;;;;;;5064105;28;20463;-81
2021/12/10 13:07:33;;;;;;;12.23;8.07;;;;;;;;;;5065470;28;20448;-81
2021/12/10 13:10:04;;;;;;;10.60;7.70;;;;;;;;;;5064179;28;20533;-81
2021/12/10 13:12:39;;;;;;;13.87;8.83;;;;;;;;;;5065763;28;20482;-80
2021/12/10 13:15:07;;;;;;;11.00;8.33;;;;;;;;;;5064780;28;20466;-81
2021/12/10 13:17:36;;;;;;;15.37;8.77;;;;;;;;;;5066198;28;20462;-81
2021/12/10 13:20:05;;;;;;;12.27;7.87;;;;;;;;;;5064668;28;20482;-81
2021/12/10 13:22:34;;;;;;;14.13;9.23;;;;;;;;;;5066202;28;20983;-81
2021/12/10 13:25:16;;;;;;;13.90;8.60;;;;;;;;;;5066207;28;20467;-81
2021/12/10 13:27:42;;;;;;;11.53;7.57;;;;;;;;;;5064412;28;20484;-80
2021/12/10 13:30:12;;;;;;;14.60;10.60;;;;;;;;;;5065083;28;21057;-81
2021/12/10 13:32:40;;;;;;;14.10;7.70;;;;;;;;;;5065124;28;20941;-81
2021/12/10 13:35:07;;;;;;;14.23;9.00;;;;;;;;;;5065578;28;21023;-81
2021/12/10 13:37:33;;;;;;;12.17;8.27;;;;;;;;;;5064088;28;20463;-81
2021/12/10 13:40:00;;;;;;;13.77;7.87;;;;;;;;;;5064663;28;20530;-81
2021/12/10 13:42:29;;;;;;;13.23;7.33;;;;;;;;;;5063377;28;20995;-81
2021/12/10 13:44:56;;;;;;;14.07;7.90;;;;;;;;;;5065347;28;21028;-81
2021/12/10 13:47:25;;;;;;;12.47;7.47;;;;;;;;;;5064563;28;20988;-81
2021/12/10 13:49:52;;;;;;;10.40;7.43;;;;;;;;;;5062043;28;20520;-81
2021/12/10 13:52:35;;;;;;;15.10;9.43;;;;;;;;;;5064881;28;20478;-81
2021/12/10 13:55:04;;;;;;;12.87;7.50;;;;;;;;;;5067091;28;20470;-81
2021/12/10 13:57:32;;;;;;;12.00;7.67;;;;;;;;;;5068721;28;20443;-81
2021/12/10 13:59:59;;;;;;;14.07;8.53;;;;;;;;;;5068496;28;20482;-81
2021/12/10 14:02:33;;;;;;;10.87;7.80;;;;;;;;;;5068644;28;21007;-81
2021/12/10 14:04:59;;;;;;;11.77;7.33;;;;;;;;;;5069320;28;20988;-81
2021/12/10 14:07:25;;;;;;;13.60;8.57;;;;;;;;;;5065079;28;20828;-81
2021/12/10 14:09:53;;;;;;;11.17;8.03;;;;;;;;;;5062206;28;20487;-81
2021/12/10 14:12:32;;;;;;;12.37;8.17;;;;;;;;;;5070219;28;20451;-81
2021/12/10 14:15:12;;;;;;;14.63;9.20;;;;;;;;;;5064275;28;20481;-81
2021/12/10 14:17:39;;;;;;;16.60;10.13;;;;;;;;;;5068743;28;20986;-81
2021/12/10 14:20:10;;;;;;;16.43;9.80;;;;;;;;;;5068177;28;20501;-81
2021/12/10 14:22:39;;;;;;;17.70;9.40;;;;;;;;;;5068387;28;20455;-81
2021/12/10 14:25:14;;;;;;;15.50;9.87;;;;;;;;;;5063135;28;20566;-81
2021/12/10 14:27:48;;;;;;;14.00;9.47;;;;;;;;;;5067600;28;21013;-81
2021/12/10 14:30:18;;;;;;;16.63;11.03;;;;;;;;;;5069163;28;20476;-81
2021/12/10 14:32:56;;;;;;;15.97;10.53;;;;;;;;;;5069770;28;20447;-81
2021/12/10 14:35:24;;;;;;;17.40;9.87;;;;;;;;;;5066080;28;20532;-81
2021/12/10 14:37:52;;;;;;;13.37;9.13;;;;;;;;;;5067775;28;20439;-82